createdAt,value
2022-10-10T00:00:11.000Z,45
2022-10-10T00:15:03.094Z,46
2022-10-10T00:30:06.224Z,46
2022-10-10T00:45:02.436Z,46
2022-10-10T01:00:04.589Z,47
2022-10-10T01:15:02.808Z,47
2022-10-10T01:30:04.602Z,47
2022-10-10T01:45:03.981Z,47
2022-10-10T02:00:06.434Z,47
2022-10-10T02:15:02.244Z,47
2022-10-10T02:30:06.199Z,48
2022-10-10T02:45:04.329Z,48
2022-10-10T03:00:03.342Z,48
2022-10-10T03:15:11.573Z,48
2022-10-10T03:30:06.656Z,48
2022-10-10T03:45:04.495Z,48
2022-10-10T04:00:08.988Z,47
2022-10-10T04:15:04.789Z,47
2022-10-10T04:30:06.620Z,47
2022-10-10T04:45:02.994Z,47
2022-10-10T05:00:04.319Z,47
2022-10-10T05:15:04.143Z,46
2022-10-10T05:30:09.972Z,46
2022-10-10T05:45:05.750Z,46
2022-10-10T06:00:05.078Z,46
2022-10-10T06:15:05.931Z,45
2022-10-10T06:30:07.223Z,45
2022-10-10T06:45:02.634Z,45
2022-10-10T07:00:08.602Z,45
2022-10-10T07:15:05.219Z,45
2022-10-10T07:30:05.734Z,45
2022-10-10T07:45:06.955Z,45
2022-10-10T08:00:09.727Z,46
2022-10-10T08:15:04.118Z,46
2022-10-10T08:30:04.685Z,47
2022-10-10T08:45:03.600Z,47
2022-10-10T09:00:06.738Z,48
2022-10-10T09:15:04.204Z,48
2022-10-10T09:30:08.254Z,48
2022-10-10T09:45:05.233Z,48
2022-10-10T10:00:05.994Z,48
2022-10-10T10:15:03.598Z,48
2022-10-10T10:30:04.440Z,48
2022-10-10T10:45:04.706Z,49
2022-10-10T11:01:22.875Z,49
2022-10-10T11:15:05.646Z,49
2022-10-10T11:30:05.047Z,49
2022-10-10T11:45:02.629Z,49
2022-10-10T12:00:10.698Z,49
2022-10-10T12:15:04.399Z,49
2022-10-10T12:30:11.180Z,49
2022-10-10T12:45:03.945Z,49
2022-10-10T13:00:09.408Z,49
2022-10-10T13:15:03.177Z,49
2022-10-10T13:30:09.759Z,49
2022-10-10T13:45:02.506Z,49
2022-10-10T14:00:08.528Z,49
2022-10-10T14:15:03.103Z,50
2022-10-10T14:30:10.715Z,49
2022-10-10T14:45:02.717Z,49
2022-10-10T15:00:09.058Z,49
2022-10-10T15:15:05.657Z,50
2022-10-10T15:30:06.049Z,50
2022-10-10T15:45:03.473Z,50
2022-10-10T16:00:06.054Z,51
2022-10-10T16:15:07.500Z,51
2022-10-10T16:30:05.788Z,52
2022-10-10T16:45:04.092Z,52
2022-10-10T17:00:07.107Z,52
2022-10-10T17:15:05.164Z,53
2022-10-10T17:30:06.603Z,53
2022-10-10T17:45:02.891Z,53
2022-10-10T18:00:09.908Z,53
2022-10-10T18:15:06.713Z,53
2022-10-10T18:30:07.147Z,53
2022-10-10T18:45:05.275Z,53
2022-10-10T19:00:09.079Z,53
2022-10-10T19:15:03.679Z,53
2022-10-10T19:30:05.674Z,53
2022-10-10T19:45:03.582Z,53
2022-10-10T20:00:04.972Z,52
2022-10-10T20:15:02.243Z,52
2022-10-10T20:30:05.660Z,52
2022-10-10T20:45:11.274Z,52
2022-10-10T21:00:08.001Z,52
2022-10-10T21:15:02.763Z,52
2022-10-10T21:30:05.346Z,51
2022-10-10T21:45:02.157Z,51
2022-10-10T22:00:05.758Z,51
2022-10-10T22:15:03.479Z,51
2022-10-10T22:30:06.212Z,50
2022-10-10T22:45:02.964Z,50
2022-10-10T23:00:05.638Z,50
2022-10-10T23:15:06.694Z,50
2022-10-10T23:30:01.862Z,50
2022-10-10T23:45:04.196Z,50
